Time;durP1;ratioP1;P1;durP2;ratioP2;P2;SDS_P1;SDS_P2;PMS_P1;PMS_P2;Temp;Humidity;BMP_temperature;BMP_pressure;BME280_temperature;BME280_humidity;BME280_pressure;Samples;Min_cycle;Max_cycle;Signal;HPM_P1;HPM_P2
2023/12/31 00:01:28;;;;;;;7.00;4.93;;;6.60;99.90;;;;;;5187594;28;20187;-50
2023/12/31 00:03:59;;;;;;;9.87;5.13;;;6.60;99.90;;;;;;5187657;28;20184;-50
2023/12/31 00:06:29;;;;;;;41.23;11.50;;;6.80;99.90;;;;;;5187603;28;20795;-49
2023/12/31 00:09:00;;;;;;;23.33;8.30;;;6.60;99.90;;;;;;5196078;28;20211;-50
2023/12/31 00:11:31;;;;;;;24.70;7.20;;;6.60;99.90;;;;;;5200513;28;20187;-49
2023/12/31 00:14:01;;;;;;;13.03;6.80;;;6.70;99.90;;;;;;5192224;28;20200;-49
2023/12/31 00:16:33;;;;;;;15.90;6.70;;;6.80;99.90;;;;;;5184934;28;20678;-50
2023/12/31 00:19:04;;;;;;;17.53;7.30;;;6.90;99.90;;;;;;5203762;28;20313;-49
2023/12/31 00:21:34;;;;;;;13.03;7.10;;;6.90;99.90;;;;;;5198821;28;20492;-49
2023/12/31 00:24:05;;;;;;;18.97;7.23;;;7.00;99.90;;;;;;5204378;28;20632;-50
2023/12/31 00:26:35;;;;;;;12.83;5.30;;;6.90;99.90;;;;;;5201793;28;20195;-51
2023/12/31 00:29:06;;;;;;;13.23;5.67;;;6.80;99.90;;;;;;5187246;28;20233;-48
2023/12/31 00:31:37;;;;;;;16.70;5.50;;;6.70;99.90;;;;;;5201909;28;20192;-49
2023/12/31 00:34:08;;;;;;;7.73;6.00;;;6.80;99.90;;;;;;5204703;28;21332;-49
2023/12/31 00:36:39;;;;;;;9.73;5.57;;;6.80;99.90;;;;;;5198497;28;20179;-48
2023/12/31 00:39:09;;;;;;;10.53;5.13;;;6.80;99.90;;;;;;5202991;28;20454;-48
2023/12/31 00:41:40;;;;;;;10.00;4.20;;;6.90;99.90;;;;;;5199708;28;20644;-51
2023/12/31 00:44:11;;;;;;;13.07;5.00;;;6.80;99.90;;;;;;5186238;28;20184;-50
2023/12/31 00:46:41;;;;;;;9.93;4.57;;;6.80;99.90;;;;;;5203064;28;20188;-49
2023/12/31 00:49:12;;;;;;;17.00;5.10;;;6.70;99.90;;;;;;5205144;28;20203;-49
2023/12/31 00:51:44;;;;;;;7.27;4.60;;;6.80;99.90;;;;;;5203188;28;20179;-49
2023/12/31 00:54:14;;;;;;;17.60;5.50;;;6.70;99.90;;;;;;5200827;28;20210;-50
2023/12/31 00:56:45;;;;;;;12.90;5.17;;;6.70;99.90;;;;;;5203164;28;20871;-50
2023/12/31 00:59:16;;;;;;;5.90;4.57;;;6.80;99.90;;;;;;5189699;28;20203;-49
2023/12/31 01:01:47;;;;;;;9.30;5.70;;;6.80;99.90;;;;;;5195323;28;20186;-49
2023/12/31 01:04:18;;;;;;;10.47;5.93;;;6.70;99.90;;;;;;5186580;28;20180;-49
2023/12/31 01:06:49;;;;;;;23.17;11.00;;;6.60;99.90;;;;;;5203432;28;20980;-50
2023/12/31 01:09:19;;;;;;;13.13;6.00;;;6.70;99.90;;;;;;5185608;28;20591;-49
2023/12/31 01:11:50;;;;;;;8.60;5.10;;;6.50;99.90;;;;;;5198893;28;20187;-50
2023/12/31 01:14:21;;;;;;;14.50;6.30;;;6.40;99.90;;;;;;5186378;28;20263;-49
2023/12/31 01:16:51;;;;;;;13.40;5.70;;;6.20;99.90;;;;;;5209962;28;20581;-49
2023/12/31 01:19:22;;;;;;;11.33;5.63;;;6.10;99.90;;;;;;5194752;28;20248;-50
2023/12/31 01:21:52;;;;;;;13.30;5.37;;;6.00;99.90;;;;;;5208414;28;20191;-49
2023/12/31 01:24:23;;;;;;;12.63;5.33;;;5.90;99.90;;;;;;5197489;28;20180;-49
2023/12/31 01:26:54;;;;;;;7.60;4.53;;;5.70;99.90;;;;;;5205077;28;20214;-49
2023/12/31 01:29:24;;;;;;;8.57;4.57;;;5.70;99.90;;;;;;5193435;28;20587;-49
2023/12/31 01:31:55;;;;;;;19.00;4.50;;;5.60;99.90;;;;;;5209223;28;20181;-49
2023/12/31 01:34:25;;;;;;;11.03;5.30;;;5.60;99.90;;;;;;5211038;28;20175;-51
2023/12/31 01:36:56;;;;;;;12.47;6.07;;;5.60;99.90;;;;;;5210322;28;20662;-49
2023/12/31 01:39:27;;;;;;;17.67;8.70;;;5.60;99.90;;;;;;5210529;28;20204;-49
2023/12/31 01:41:57;;;;;;;17.67;10.10;;;5.50;99.90;;;;;;5192467;28;20538;-49
2023/12/31 01:44:28;;;;;;;21.57;8.17;;;5.40;99.90;;;;;;5208353;28;20620;-50
2023/12/31 01:46:59;;;;;;;12.03;6.83;;;5.40;99.90;;;;;;5210034;28;20201;-50
2023/12/31 01:49:30;;;;;;;11.03;5.83;;;5.40;99.90;;;;;;5211469;28;20207;-49
2023/12/31 01:52:02;;;;;;;10.80;6.30;;;5.30;99.90;;;;;;5183859;28;20189;-50
2023/12/31 01:54:32;;;;;;;12.77;5.80;;;5.30;99.90;;;;;;5209824;28;20504;-49
2023/12/31 01:57:05;;;;;;;23.57;6.50;;;5.20;99.90;;;;;;5193859;28;20441;-49
2023/12/31 01:59:36;;;;;;;8.80;4.97;;;5.30;99.90;;;;;;5210593;28;20294;-50
2023/12/31 02:02:07;;;;;;;7.80;4.60;;;5.20;99.90;;;;;;5209973;28;20939;-50
2023/12/31 02:04:38;;;;;;;6.37;3.90;;;5.20;99.90;;;;;;5210979;28;20525;-49
2023/12/31 02:07:09;;;;;;;13.07;4.60;;;5.10;99.90;;;;;;5188115;28;20195;-48
2023/12/31 02:09:40;;;;;;;14.07;5.30;;;5.10;99.90;;;;;;5191290;28;20461;-49
2023/12/31 02:12:11;;;;;;;11.30;5.00;;;5.00;99.90;;;;;;5194731;28;20176;-49
2023/12/31 02:14:42;;;;;;;8.13;4.20;;;5.10;99.90;;;;;;5193512;28;20183;-49
2023/12/31 02:17:12;;;;;;;9.30;4.00;;;5.10;99.90;;;;;;5208430;28;20935;-49
2023/12/31 02:19:43;;;;;;;10.93;4.50;;;5.10;99.90;;;;;;5210766;28;20645;-48
2023/12/31 02:22:14;;;;;;;6.73;3.67;;;5.10;99.90;;;;;;5211265;28;20571;-49
2023/12/31 02:24:48;;;;;;;7.20;3.70;;;5.00;99.90;;;;;;5206630;28;20663;-49
2023/12/31 02:27:19;;;;;;;4.73;3.10;;;5.10;99.90;;;;;;5188853;28;20275;-47
2023/12/31 02:29:49;;;;;;;14.87;5.20;;;5.10;99.90;;;;;;5204073;28;20544;-49
2023/12/31 02:32:20;;;;;;;8.73;3.77;;;5.00;99.90;;;;;;5205246;28;20218;-48
2023/12/31 02:34:51;;;;;;;10.40;3.97;;;5.10;99.90;;;;;;5193618;28;20380;-50
2023/12/31 02:37:21;;;;;;;8.73;3.90;;;5.00;99.90;;;;;;5188583;28;20187;-49
2023/12/31 02:39:52;;;;;;;16.63;3.47;;;5.00;99.90;;;;;;5204711;28;20232;-49
2023/12/31 02:42:23;;;;;;;9.00;3.60;;;5.00;99.90;;;;;;5204304;28;20186;-49
2023/12/31 02:44:53;;;;;;;8.40;3.63;;;5.10;99.90;;;;;;5189350;28;20221;-48
2023/12/31 02:47:24;;;;;;;6.40;4.10;;;5.10;99.90;;;;;;5204352;28;20518;-48
2023/12/31 02:49:54;;;;;;;14.73;3.73;;;5.00;99.90;;;;;;5189319;28;20213;-48
2023/12/31 02:52:25;;;;;;;9.40;3.83;;;5.30;99.90;;;;;;5173360;28;20183;-49
2023/12/31 02:54:56;;;;;;;13.60;3.70;;;5.20;99.90;;;;;;5187268;28;20217;-48
2023/12/31 02:57:27;;;;;;;5.50;3.63;;;5.10;99.90;;;;;;5189415;28;20174;-49
2023/12/31 02:59:57;;;;;;;16.20;4.57;;;5.10;99.90;;;;;;5189236;28;20190;-47
2023/12/31 03:02:28;;;;;;;4.60;3.90;;;5.00;99.90;;;;;;5202245;28;20500;-48
2023/12/31 03:04:58;;;;;;;14.13;3.93;;;5.00;99.90;;;;;;5186925;28;20187;-48
2023/12/31 03:07:29;;;;;;;9.43;3.87;;;5.00;99.90;;;;;;5204237;28;20684;-48
2023/12/31 03:10:00;;;;;;;6.83;4.03;;;5.00;99.90;;;;;;5204953;28;20296;-48
2023/12/31 03:12:30;;;;;;;6.23;3.90;;;4.90;99.90;;;;;;5201355;28;20666;-48
2023/12/31 03:15:01;;;;;;;6.53;4.10;;;4.90;99.90;;;;;;5194470;28;20222;-49
2023/12/31 03:17:31;;;;;;;7.70;3.33;;;4.90;99.90;;;;;;5188912;28;20178;-50
2023/12/31 03:20:03;;;;;;;6.70;3.80;;;4.90;99.90;;;;;;5206259;28;20252;-49
2023/12/31 03:22:33;;;;;;;20.70;4.63;;;4.80;99.90;;;;;;5201740;28;20243;-48
2023/12/31 03:25:05;;;;;;;6.13;4.00;;;4.80;99.90;;;;;;5204864;28;20439;-49
2023/12/31 03:27:35;;;;;;;24.00;5.27;;;4.80;99.90;;;;;;5187814;28;20229;-49
2023/12/31 03:30:08;;;;;;;10.97;4.73;;;4.80;99.90;;;;;;5203907;28;20464;-49
2023/12/31 03:32:39;;;;;;;6.33;4.20;;;4.70;99.90;;;;;;5187208;28;20542;-49
2023/12/31 03:35:10;;;;;;;11.73;3.50;;;4.70;99.90;;;;;;5205067;28;20418;-49
2023/12/31 03:37:46;;;;;;;9.70;3.30;;;4.70;99.90;;;;;;5205478;28;20500;-49
2023/12/31 03:40:17;;;;;;;5.63;3.90;;;4.80;99.90;;;;;;5187926;28;20185;-50
2023/12/31 03:42:47;;;;;;;5.30;3.93;;;4.70;99.90;;;;;;5187226;28;20445;-49
2023/12/31 03:45:18;;;;;;;11.20;4.00;;;4.70;99.90;;;;;;5204629;28;20220;-49
2023/12/31 03:47:49;;;;;;;8.13;3.60;;;4.70;99.90;;;;;;5204359;28;20219;-50
2023/12/31 03:50:20;;;;;;;12.93;3.47;;;4.60;99.90;;;;;;5205110;28;20204;-49
2023/12/31 03:52:50;;;;;;;5.50;3.17;;;4.70;99.90;;;;;;5186052;28;20437;-49
2023/12/31 03:55:21;;;;;;;8.00;3.87;;;4.60;99.90;;;;;;5188158;28;20182;-50
2023/12/31 03:57:51;;;;;;;9.07;3.80;;;4.60;99.90;;;;;;5204191;28;20213;-48
2023/12/31 04:00:22;;;;;;;12.57;4.60;;;4.60;99.90;;;;;;5204945;28;20186;-49
2023/12/31 04:02:53;;;;;;;8.87;4.20;;;4.60;99.90;;;;;;5188160;28;20186;-49
2023/12/31 04:05:23;;;;;;;7.03;4.10;;;4.70;99.90;;;;;;5191155;28;20258;-49
2023/12/31 04:07:54;;;;;;;8.63;4.50;;;4.60;99.90;;;;;;5188550;28;20214;-49
2023/12/31 04:10:25;;;;;;;7.27;3.23;;;4.60;99.90;;;;;;5201258;28;20714;-51
2023/12/31 04:12:55;;;;;;;7.40;3.93;;;4.60;99.90;;;;;;5203849;28;20260;-49
2023/12/31 04:15:26;;;;;;;10.90;3.77;;;4.50;99.90;;;;;;5190303;28;20190;-49
2023/12/31 04:17:56;;;;;;;8.33;4.20;;;4.50;99.90;;;;;;5186685;28;20558;-48
2023/12/31 04:20:27;;;;;;;8.73;3.57;;;4.50;99.90;;;;;;5185925;28;20187;-49
2023/12/31 04:22:58;;;;;;;5.77;4.13;;;4.50;99.90;;;;;;5194208;28;20193;-49
2023/12/31 04:25:28;;;;;;;7.30;3.93;;;4.40;99.90;;;;;;5187458;28;20189;-50
2023/12/31 04:27:59;;;;;;;5.80;4.50;;;4.40;99.90;;;;;;5187740;28;20222;-49
2023/12/31 04:30:30;;;;;;;5.93;3.20;;;4.40;99.90;;;;;;5203982;28;20296;-48
2023/12/31 04:33:01;;;;;;;10.33;4.30;;;4.40;99.90;;;;;;5203352;28;20539;-48
2023/12/31 04:35:31;;;;;;;5.70;4.40;;;4.40;99.90;;;;;;5191572;28;20188;-47
2023/12/31 04:38:02;;;;;;;4.53;3.83;;;4.40;99.90;;;;;;5205792;28;20233;-49
2023/12/31 04:40:33;;;;;;;14.20;4.83;;;4.40;99.90;;;;;;5191059;28;20227;-49
2023/12/31 04:43:03;;;;;;;11.10;4.20;;;4.40;99.90;;;;;;5204602;28;20281;-49
2023/12/31 04:45:34;;;;;;;8.17;3.70;;;4.40;99.90;;;;;;5203750;28;20610;-50
2023/12/31 04:48:05;;;;;;;10.97;3.73;;;4.40;99.90;;;;;;5204841;28;20697;-49
2023/12/31 04:50:35;;;;;;;9.30;4.70;;;4.40;99.90;;;;;;5203548;28;20220;-49
2023/12/31 04:53:06;;;;;;;8.10;5.03;;;4.40;99.90;;;;;;5205186;28;20469;-50
2023/12/31 04:55:37;;;;;;;13.80;4.53;;;4.50;99.90;;;;;;5187969;28;20193;-50
2023/12/31 04:58:07;;;;;;;11.00;3.73;;;4.50;99.90;;;;;;5200221;28;20289;-48
2023/12/31 05:00:38;;;;;;;8.03;3.93;;;4.50;99.90;;;;;;5187678;28;20215;-49
2023/12/31 05:03:08;;;;;;;6.47;4.20;;;4.50;99.90;;;;;;5187694;28;20186;-50
2023/12/31 05:05:39;;;;;;;4.67;3.80;;;4.60;99.90;;;;;;5199942;28;20182;-49
2023/12/31 05:08:10;;;;;;;5.43;3.90;;;4.60;99.90;;;;;;5190216;28;20715;-47
2023/12/31 05:10:40;;;;;;;14.90;4.30;;;4.60;99.90;;;;;;5202456;28;20197;-49
2023/12/31 05:13:11;;;;;;;9.30;4.07;;;4.60;99.90;;;;;;5201458;28;20176;-50
2023/12/31 05:15:41;;;;;;;15.60;4.53;;;4.60;99.90;;;;;;5206178;28;20179;-49
2023/12/31 05:18:12;;;;;;;11.00;5.17;;;4.60;99.90;;;;;;5193715;28;20204;-49
2023/12/31 05:20:43;;;;;;;9.03;3.43;;;4.60;99.90;;;;;;5172930;28;20249;-49
2023/12/31 05:23:13;;;;;;;9.40;4.70;;;4.60;99.90;;;;;;5186686;28;20215;-48
2023/12/31 05:25:44;;;;;;;8.60;5.50;;;4.60;99.90;;;;;;5203121;28;20181;-50
2023/12/31 05:28:14;;;;;;;3.97;3.57;;;4.60;99.90;;;;;;5187724;28;20224;-49
2023/12/31 05:30:45;;;;;;;25.47;4.60;;;4.60;99.90;;;;;;5187291;28;20743;-49
2023/12/31 05:33:16;;;;;;;8.50;3.90;;;4.60;99.90;;;;;;5188152;28;20230;-49
2023/12/31 05:35:47;;;;;;;4.50;3.20;;;4.50;99.90;;;;;;5205877;28;20669;-49
2023/12/31 05:38:18;;;;;;;8.23;4.27;;;4.60;99.90;;;;;;5188577;28;20289;-48
2023/12/31 05:40:49;;;;;;;11.70;3.93;;;4.60;99.90;;;;;;5203030;28;20199;-49
2023/12/31 05:43:19;;;;;;;8.77;4.00;;;4.60;99.90;;;;;;5203326;28;20433;-49
2023/12/31 05:45:50;;;;;;;4.83;3.93;;;4.60;99.90;;;;;;5200009;28;20577;-48
2023/12/31 05:48:21;;;;;;;3.67;3.30;;;4.60;99.90;;;;;;5187442;28;20231;-48
2023/12/31 05:50:52;;;;;;;12.40;4.23;;;4.60;99.90;;;;;;5203708;28;20464;-49
2023/12/31 05:53:23;;;;;;;6.13;3.97;;;4.60;99.90;;;;;;5187650;28;20276;-49
2023/12/31 05:55:53;;;;;;;5.10;3.40;;;4.70;99.90;;;;;;5202065;28;20200;-49
2023/12/31 05:58:24;;;;;;;3.60;3.33;;;4.60;99.90;;;;;;5199729;28;20197;-48
2023/12/31 06:00:54;;;;;;;5.50;3.20;;;4.60;99.90;;;;;;5188281;28;20469;-48
2023/12/31 06:03:25;;;;;;;4.53;2.97;;;4.60;99.90;;;;;;5205296;28;20187;-48
2023/12/31 06:05:56;;;;;;;10.47;3.30;;;4.60;99.90;;;;;;5207252;28;20553;-48
2023/12/31 06:08:26;;;;;;;7.27;3.80;;;4.60;99.90;;;;;;5190867;28;20217;-49
2023/12/31 06:10:57;;;;;;;7.13;3.50;;;4.60;99.90;;;;;;5194052;28;20268;-48
2023/12/31 06:13:27;;;;;;;11.63;4.00;;;4.70;99.90;;;;;;5189995;28;20272;-50
2023/12/31 06:15:58;;;;;;;8.40;3.43;;;4.60;99.90;;;;;;5207477;28;20182;-47
2023/12/31 06:18:29;;;;;;;7.10;3.40;;;4.70;99.90;;;;;;5190306;28;20206;-48
2023/12/31 06:21:00;;;;;;;8.23;3.50;;;4.70;99.90;;;;;;5188757;28;20192;-48
2023/12/31 06:23:30;;;;;;;3.80;3.17;;;4.70;99.90;;;;;;5189888;28;20432;-49
2023/12/31 06:26:01;;;;;;;13.40;3.57;;;4.80;99.90;;;;;;5190561;28;20219;-49
2023/12/31 06:28:31;;;;;;;4.50;3.33;;;4.80;99.90;;;;;;5206741;28;20744;-49
2023/12/31 06:31:02;;;;;;;5.47;3.37;;;4.80;99.90;;;;;;5202685;28;20671;-49
2023/12/31 06:33:33;;;;;;;3.40;2.93;;;4.80;99.90;;;;;;5195915;28;20181;-49
2023/12/31 06:36:04;;;;;;;9.40;3.30;;;4.80;99.90;;;;;;5190780;28;20875;-49
2023/12/31 06:38:34;;;;;;;3.50;3.10;;;4.80;99.90;;;;;;5193459;28;20232;-50
2023/12/31 06:41:08;;;;;;;6.50;2.90;;;4.90;99.90;;;;;;5207570;28;20556;-49
2023/12/31 06:43:39;;;;;;;3.20;2.73;;;4.90;99.90;;;;;;5206419;28;20190;-50
2023/12/31 06:46:10;;;;;;;8.73;3.10;;;4.90;99.90;;;;;;5206768;28;20420;-49
2023/12/31 06:48:41;;;;;;;3.43;2.73;;;4.90;99.90;;;;;;5193389;28;20457;-49
2023/12/31 06:51:11;;;;;;;9.03;2.83;;;4.90;99.90;;;;;;5206902;28;20255;-49
2023/12/31 06:53:42;;;;;;;4.03;2.57;;;4.90;99.90;;;;;;5205081;28;20881;-50
2023/12/31 06:56:13;;;;;;;5.90;2.90;;;4.90;99.90;;;;;;5207823;28;20187;-49
2023/12/31 06:58:44;;;;;;;3.77;3.00;;;4.90;99.90;;;;;;5205685;28;20218;-49
2023/12/31 07:01:14;;;;;;;3.87;2.60;;;4.90;99.90;;;;;;5204522;28;20181;-50
2023/12/31 07:03:45;;;;;;;4.73;2.40;;;4.90;99.90;;;;;;5188821;28;20432;-49
2023/12/31 07:06:16;;;;;;;4.03;2.70;;;4.90;99.90;;;;;;5191788;28;20182;-49
2023/12/31 07:08:46;;;;;;;8.50;2.87;;;4.90;99.90;;;;;;5205864;28;20237;-50
2023/12/31 07:11:17;;;;;;;3.97;2.90;;;5.00;99.90;;;;;;5188924;28;20628;-49
2023/12/31 07:13:47;;;;;;;5.20;3.07;;;4.90;99.90;;;;;;5188098;28;20243;-49
2023/12/31 07:16:18;;;;;;;5.90;3.17;;;4.90;99.90;;;;;;5206705;28;20212;-48
2023/12/31 07:18:49;;;;;;;17.20;2.87;;;4.90;99.90;;;;;;5204577;28;20921;-49
2023/12/31 07:21:23;;;;;;;3.23;2.67;;;5.00;99.90;;;;;;5204502;28;20544;-48
2023/12/31 07:23:54;;;;;;;2.93;2.70;;;5.10;99.90;;;;;;5200739;28;20212;-49
2023/12/31 07:26:25;;;;;;;3.00;2.63;;;5.00;99.90;;;;;;5202294;28;20504;-49
2023/12/31 07:28:56;;;;;;;4.03;2.60;;;5.00;99.90;;;;;;5205507;28;20209;-49
2023/12/31 07:31:27;;;;;;;3.80;2.80;;;5.10;99.90;;;;;;5169132;28;20496;-49
2023/12/31 07:33:57;;;;;;;10.57;3.00;;;5.10;99.90;;;;;;5184567;28;20182;-49
2023/12/31 07:36:28;;;;;;;7.80;3.33;;;5.10;99.90;;;;;;5194363;28;20250;-50
2023/12/31 07:39:00;;;;;;;6.13;2.50;;;5.10;99.90;;;;;;5204489;28;20210;-50
2023/12/31 07:41:30;;;;;;;8.70;3.17;;;5.10;99.90;;;;;;5203790;28;20236;-50
2023/12/31 07:44:01;;;;;;;3.53;3.10;;;5.20;99.90;;;;;;5189385;28;20976;-50
2023/12/31 07:46:31;;;;;;;6.67;3.17;;;5.10;99.90;;;;;;5188305;28;20181;-49
2023/12/31 07:49:03;;;;;;;4.80;2.90;;;5.20;99.90;;;;;;5185207;28;20219;-50
2023/12/31 07:51:33;;;;;;;4.00;2.43;;;5.20;99.90;;;;;;5187551;28;20183;-49
2023/12/31 07:54:04;;;;;;;9.10;3.40;;;5.30;99.90;;;;;;5187019;28;20444;-48
2023/12/31 07:56:35;;;;;;;9.10;3.23;;;5.30;99.90;;;;;;5205446;28;20182;-48
2023/12/31 07:59:05;;;;;;;6.00;3.30;;;5.30;99.90;;;;;;5185471;28;20264;-49
2023/12/31 08:01:36;;;;;;;3.70;2.77;;;5.40;99.90;;;;;;5205170;28;20578;-50
2023/12/31 08:04:07;;;;;;;3.47;2.97;;;5.40;99.90;;;;;;5187738;28;20195;-48
2023/12/31 08:06:37;;;;;;;3.00;2.47;;;5.40;99.90;;;;;;5203784;28;20190;-50
2023/12/31 08:09:10;;;;;;;3.90;1.90;;;5.40;99.90;;;;;;5207303;28;20226;-47
2023/12/31 08:11:41;;;;;;;9.07;2.90;;;5.50;99.90;;;;;;5190366;28;20186;-47
2023/12/31 08:14:12;;;;;;;3.07;2.63;;;5.60;99.90;;;;;;5203349;28;20469;-48
2023/12/31 08:16:42;;;;;;;4.10;2.30;;;5.60;99.90;;;;;;5192860;28;20184;-48
2023/12/31 08:19:13;;;;;;;5.53;2.80;;;5.60;99.90;;;;;;5203323;28;20691;-48
2023/12/31 08:21:45;;;;;;;3.60;2.63;;;5.60;99.90;;;;;;5172532;28;20261;-49
2023/12/31 08:24:20;;;;;;;4.73;2.90;;;5.60;99.90;;;;;;5204511;28;20964;-48
2023/12/31 08:26:51;;;;;;;4.80;2.50;;;5.60;99.90;;;;;;5186935;28;20191;-48
2023/12/31 08:29:22;;;;;;;3.17;2.93;;;5.70;99.90;;;;;;5188967;28;20468;-53
2023/12/31 08:31:54;;;;;;;4.57;3.07;;;5.70;99.90;;;;;;5204692;28;20839;-48
2023/12/31 08:34:25;;;;;;;4.33;2.90;;;5.70;99.90;;;;;;5188007;28;20210;-48
2023/12/31 08:36:55;;;;;;;8.67;3.13;;;5.80;99.90;;;;;;5202835;28;20465;-50
2023/12/31 08:39:26;;;;;;;11.30;3.50;;;5.80;99.90;;;;;;5187883;28;20200;-47
2023/12/31 08:41:56;;;;;;;4.17;3.57;;;5.80;99.90;;;;;;5206215;28;20187;-50
2023/12/31 08:44:27;;;;;;;3.00;2.50;;;5.90;99.90;;;;;;5204489;28;20659;-47
2023/12/31 08:46:57;;;;;;;2.77;2.53;;;5.90;99.90;;;;;;5199403;28;20666;-47
2023/12/31 08:49:29;;;;;;;4.33;2.00;;;6.00;99.90;;;;;;5202241;28;20313;-48
2023/12/31 08:51:59;;;;;;;7.00;3.20;;;6.00;99.90;;;;;;5187427;28;20187;-48
2023/12/31 08:54:30;;;;;;;5.50;2.63;;;6.10;99.90;;;;;;5203818;28;20441;-47
2023/12/31 08:57:00;;;;;;;7.80;1.93;;;6.20;99.90;;;;;;5205488;28;20237;-47
2023/12/31 08:59:31;;;;;;;3.90;2.60;;;6.20;99.90;;;;;;5188336;28;20303;-49
2023/12/31 09:02:02;;;;;;;12.43;2.37;;;6.30;99.90;;;;;;5191074;28;20187;-47
2023/12/31 09:04:34;;;;;;;10.63;2.57;;;6.30;99.90;;;;;;5188238;28;20203;-48
2023/12/31 09:07:04;;;;;;;2.97;2.10;;;6.50;99.90;;;;;;5204812;28;20191;-47
2023/12/31 09:09:35;;;;;;;4.00;2.57;;;6.60;99.90;;;;;;5204682;28;20979;-47
2023/12/31 09:12:06;;;;;;;7.23;2.53;;;6.70;99.90;;;;;;5205293;28;20184;-49
2023/12/31 09:14:36;;;;;;;4.60;3.13;;;6.70;99.90;;;;;;5204379;28;20211;-47
2023/12/31 09:17:07;;;;;;;8.80;3.20;;;6.70;99.90;;;;;;5204194;28;20186;-47
2023/12/31 09:19:40;;;;;;;3.20;2.90;;;6.70;99.90;;;;;;5192647;28;20697;-47
2023/12/31 09:22:11;;;;;;;3.50;2.30;;;6.60;99.90;;;;;;5178426;28;20275;-47
2023/12/31 09:24:41;;;;;;;3.87;2.40;;;6.60;99.90;;;;;;5185571;28;20997;-46
2023/12/31 09:27:12;;;;;;;7.40;3.17;;;6.60;99.90;;;;;;5186838;28;20206;-48
2023/12/31 09:29:43;;;;;;;4.60;2.90;;;6.60;99.90;;;;;;5204989;28;20261;-47
2023/12/31 09:32:15;;;;;;;8.13;2.80;;;6.60;99.90;;;;;;5204904;28;20180;-47
2023/12/31 09:34:46;;;;;;;2.80;2.60;;;6.60;99.90;;;;;;5186879;28;20171;-47
2023/12/31 09:37:19;;;;;;;4.17;2.60;;;6.70;99.90;;;;;;5190673;28;20426;-47
2023/12/31 09:39:49;;;;;;;3.13;2.80;;;6.80;99.90;;;;;;5193049;28;20218;-48
2023/12/31 09:42:33;;;;;;;3.53;3.23;;;6.90;99.90;;;;;;5194360;28;20866;-48
2023/12/31 09:45:07;;;;;;;7.00;3.10;;;6.90;99.90;;;;;;5209084;28;20191;-47
2023/12/31 09:47:39;;;;;;;3.30;3.00;;;6.90;99.90;;;;;;5190605;28;20476;-47
2023/12/31 09:50:10;;;;;;;5.27;2.20;;;6.90;99.90;;;;;;5206394;28;20478;-48
2023/12/31 09:52:42;;;;;;;2.80;2.30;;;6.90;99.90;;;;;;5179196;28;20516;-47
2023/12/31 09:55:15;;;;;;;4.30;3.33;;;6.90;99.90;;;;;;5188681;28;20441;-48
2023/12/31 09:57:52;;;;;;;2.30;2.20;;;6.90;99.90;;;;;;5194314;28;20511;-48
2023/12/31 10:00:23;;;;;;;7.43;3.17;;;6.90;99.90;;;;;;5208148;28;20446;-47
2023/12/31 10:02:53;;;;;;;3.67;3.07;;;7.00;99.90;;;;;;5191830;28;20488;-48
2023/12/31 10:05:26;;;;;;;3.37;3.07;;;7.00;99.90;;;;;;5207986;28;20264;-47
2023/12/31 10:07:56;;;;;;;5.13;3.20;;;7.00;99.90;;;;;;5207544;28;20663;-50
2023/12/31 10:10:27;;;;;;;4.80;2.57;;;7.00;99.90;;;;;;5189379;28;20557;-48
2023/12/31 10:12:58;;;;;;;9.50;3.30;;;7.00;99.90;;;;;;5190499;28;20184;-47
2023/12/31 10:15:28;;;;;;;3.10;2.90;;;7.00;99.90;;;;;;5208427;28;20237;-47
2023/12/31 10:18:03;;;;;;;3.47;3.23;;;7.00;99.90;;;;;;5209321;28;20216;-46
2023/12/31 10:20:37;;;;;;;2.77;2.57;;;7.10;99.90;;;;;;5208475;28;20552;-48
2023/12/31 10:23:08;;;;;;;3.23;2.60;;;7.10;99.90;;;;;;5190995;28;20441;-47
2023/12/31 10:25:40;;;;;;;3.40;2.60;;;7.10;99.90;;;;;;5205242;28;20529;-47
2023/12/31 10:28:11;;;;;;;5.73;2.70;;;7.20;99.90;;;;;;5203127;28;20593;-50
2023/12/31 10:30:41;;;;;;;4.47;2.20;;;7.20;99.90;;;;;;5188482;28;20473;-47
2023/12/31 10:33:15;;;;;;;3.60;2.27;;;7.10;99.90;;;;;;5193575;28;20171;-47
2023/12/31 10:35:47;;;;;;;4.83;3.00;;;7.20;99.90;;;;;;5204086;28;20183;-47
2023/12/31 10:38:18;;;;;;;6.10;2.93;;;7.20;99.90;;;;;;5189151;28;20514;-51
2023/12/31 10:40:48;;;;;;;5.07;3.30;;;7.20;99.90;;;;;;5202079;28;20549;-47
2023/12/31 10:43:21;;;;;;;4.00;2.70;;;7.20;99.90;;;;;;5190737;28;20282;-49
2023/12/31 10:45:52;;;;;;;9.20;2.97;;;7.20;99.90;;;;;;5207493;28;20602;-47
2023/12/31 10:48:24;;;;;;;7.10;2.80;;;7.20;99.90;;;;;;5205772;28;20450;-48
2023/12/31 10:50:55;;;;;;;2.53;2.37;;;7.20;99.90;;;;;;5207380;28;20470;-47
2023/12/31 10:53:27;;;;;;;3.00;2.30;;;7.20;99.90;;;;;;5189298;28;20465;-48
2023/12/31 10:55:58;;;;;;;2.33;2.23;;;7.20;99.90;;;;;;5193165;28;20238;-49
2023/12/31 10:58:29;;;;;;;4.53;2.47;;;7.20;99.90;;;;;;5206389;28;20489;-47
2023/12/31 11:01:01;;;;;;;3.37;2.70;;;7.30;99.90;;;;;;5188134;28;20439;-47
2023/12/31 11:03:33;;;;;;;3.13;2.13;;;7.40;99.90;;;;;;5204916;28;20188;-48
2023/12/31 11:06:05;;;;;;;6.90;3.03;;;7.40;99.90;;;;;;5207921;28;20522;-48
2023/12/31 11:08:37;;;;;;;2.97;2.60;;;7.40;99.90;;;;;;5231640;22;20543;-50
2023/12/31 11:11:08;;;;;;;3.77;2.63;;;7.50;99.90;;;;;;5215334;28;20469;-50
2023/12/31 11:13:46;;;;;;;3.30;3.10;;;7.50;99.90;;;;;;5209099;28;20429;-51
2023/12/31 11:16:28;;;;;;;4.73;3.87;;;7.50;99.90;;;;;;5211740;28;20429;-51
2023/12/31 11:19:39;;;;;;;22.07;11.33;;;7.50;99.90;;;;;;5225939;28;20461;-52
2023/12/31 11:22:32;;;;;;;20.63;10.80;;;7.60;99.90;;;;;;5222275;28;20429;-50
2023/12/31 11:25:04;;;;;;;5.73;2.87;;;7.60;99.90;;;;;;5225189;28;20461;-50
2023/12/31 11:27:35;;;;;;;4.63;3.63;;;7.60;99.90;;;;;;5214566;28;20433;-51
2023/12/31 11:30:07;;;;;;;4.27;2.17;;;7.60;99.90;;;;;;5207219;28;20476;-50
2023/12/31 11:32:38;;;;;;;7.00;2.83;;;7.60;99.90;;;;;;5211325;28;20496;-51
2023/12/31 11:35:10;;;;;;;2.77;2.53;;;7.60;99.90;;;;;;5229207;28;20473;-51
2023/12/31 11:37:41;;;;;;;3.30;3.00;;;7.60;99.90;;;;;;5222771;28;20258;-49
2023/12/31 11:40:12;;;;;;;4.23;3.37;;;7.70;99.90;;;;;;5216999;28;20532;-52
2023/12/31 11:42:43;;;;;;;4.60;3.70;;;7.80;99.90;;;;;;5224330;28;20179;-50
2023/12/31 11:45:39;;;;;;;3.70;3.20;;;7.80;99.90;;;;;;5224828;28;20456;-51
2023/12/31 11:48:20;;;;;;;6.93;2.70;;;7.80;99.90;;;;;;5227781;28;20222;-52
2023/12/31 11:50:57;;;;;;;6.33;2.50;;;7.90;99.90;;;;;;5212003;28;20535;-50
2023/12/31 11:53:46;;;;;;;2.90;2.53;;;7.90;99.90;;;;;;5225488;28;20433;-51
2023/12/31 11:56:18;;;;;;;8.10;3.57;;;7.90;99.90;;;;;;5213008;28;20456;-50
2023/12/31 11:58:50;;;;;;;3.60;3.27;;;7.90;99.90;;;;;;5211546;28;20681;-51
2023/12/31 12:01:21;;;;;;;4.37;1.90;;;7.90;99.90;;;;;;5224440;28;20442;-51
2023/12/31 12:03:52;;;;;;;4.40;3.10;;;8.00;99.90;;;;;;5225720;28;20468;-49
2023/12/31 12:06:22;;;;;;;4.20;2.60;;;8.00;99.90;;;;;;5225195;28;20186;-50
2023/12/31 12:08:53;;;;;;;3.43;2.20;;;8.00;99.90;;;;;;5216778;28;20242;-54
2023/12/31 12:11:24;;;;;;;4.40;3.00;;;8.00;99.90;;;;;;5210867;28;20262;-52
2023/12/31 12:13:54;;;;;;;3.17;2.20;;;7.90;99.90;;;;;;5214063;28;20290;-49
2023/12/31 12:16:28;;;;;;;4.53;3.07;;;7.90;99.90;;;;;;5212135;28;20525;-49
2023/12/31 12:19:05;;;;;;;3.70;2.60;;;7.90;99.90;;;;;;5225824;28;20478;-49
2023/12/31 12:21:37;;;;;;;6.30;3.07;;;7.90;99.90;;;;;;5221194;28;20425;-51
2023/12/31 12:24:09;;;;;;;4.00;3.20;;;7.90;99.90;;;;;;5225088;28;20968;-50
2023/12/31 12:26:40;;;;;;;2.90;2.43;;;7.90;99.90;;;;;;5213515;28;20940;-49
2023/12/31 12:29:14;;;;;;;3.00;2.80;;;7.80;99.90;;;;;;5215531;28;20548;-50
2023/12/31 12:31:46;;;;;;;3.20;2.83;;;7.90;99.90;;;;;;5224952;28;20425;-50
2023/12/31 12:34:18;;;;;;;3.70;3.40;;;7.90;99.90;;;;;;5211776;28;20426;-49
2023/12/31 12:36:49;;;;;;;12.43;4.13;;;7.90;99.90;;;;;;5213813;28;20422;-51
2023/12/31 12:39:20;;;;;;;7.20;3.23;;;7.90;99.90;;;;;;5224261;28;20909;-51
2023/12/31 12:41:52;;;;;;;8.53;3.40;;;7.90;99.90;;;;;;5227100;28;20537;-51
2023/12/31 12:44:23;;;;;;;2.60;2.33;;;7.90;99.90;;;;;;5220461;28;20182;-49
2023/12/31 12:46:54;;;;;;;6.50;3.50;;;7.90;99.90;;;;;;5214520;28;20481;-50
2023/12/31 12:49:24;;;;;;;3.20;3.00;;;7.90;99.90;;;;;;5218815;28;20494;-52
2023/12/31 12:51:55;;;;;;;9.07;3.53;;;8.00;99.90;;;;;;5202605;28;20727;-51
2023/12/31 12:54:26;;;;;;;5.50;3.17;;;7.90;99.90;;;;;;5210088;28;20175;-51
2023/12/31 12:56:56;;;;;;;10.90;6.30;;;7.90;99.90;;;;;;5215511;28;20179;-54
2023/12/31 12:59:27;;;;;;;5.87;3.73;;;7.90;99.90;;;;;;5214243;28;20464;-51
2023/12/31 13:02:00;;;;;;;8.90;4.10;;;7.80;99.90;;;;;;5206429;28;20503;-53
2023/12/31 13:04:30;;;;;;;5.93;4.67;;;7.80;99.90;;;;;;5203160;28;20194;-54
2023/12/31 13:07:01;;;;;;;3.90;3.60;;;7.70;99.90;;;;;;5221273;28;20426;-53
2023/12/31 13:09:35;;;;;;;6.53;4.60;;;7.80;99.90;;;;;;5220721;28;20211;-53
2023/12/31 13:12:06;;;;;;;10.90;4.47;;;7.80;99.90;;;;;;5209934;28;20187;-55
2023/12/31 13:14:37;;;;;;;8.93;4.47;;;7.80;99.90;;;;;;5224086;28;20445;-52
2023/12/31 13:17:08;;;;;;;6.83;4.13;;;7.70;99.90;;;;;;5217012;28;20463;-50